Time;durP1;ratioP1;P1;durP2;ratioP2;P2;SDS_P1;SDS_P2;PMS_P1;PMS_P2;Temp;Humidity;BMP_temperature;BMP_pressure;BME280_temperature;BME280_humidity;BME280_pressure;Samples;Min_cycle;Max_cycle;Signal;HPM_P1;HPM_P2
2022/03/02 00:02:53;;;;;;;3.55;2.50;;;19.00;46.10;;;;;;6244936;28;20028;-67
2022/03/02 00:05:54;;;;;;;5.10;3.10;;;19.00;45.40;;;;;;6244780;28;20033;-68
2022/03/02 00:08:54;;;;;;;4.18;2.72;;;19.00;45.50;;;;;;6246085;28;20025;-68
2022/03/02 00:11:55;;;;;;;5.00;2.83;;;18.90;45.30;;;;;;6244693;28;20053;-68
2022/03/02 00:14:57;;;;;;;4.22;2.90;;;19.00;45.50;;;;;;6244507;28;20036;-68
2022/03/02 00:17:58;;;;;;;3.53;2.28;;;19.00;45.50;;;;;;6244636;28;20029;-67
2022/03/02 00:20:58;;;;;;;5.00;2.97;;;19.00;45.50;;;;;;6244646;28;20480;-67
2022/03/02 00:24:03;;;;;;;3.65;2.60;;;18.90;45.40;;;;;;6244098;28;20053;-68
2022/03/02 00:27:04;;;;;;;5.35;2.80;;;19.00;45.50;;;;;;6244422;28;20381;-68
2022/03/02 00:30:08;;;;;;;5.43;3.35;;;19.00;45.50;;;;;;6244437;28;20038;-68
2022/03/02 00:33:09;;;;;;;3.88;2.63;;;19.00;45.50;;;;;;6244342;28;20502;-68
2022/03/02 00:36:09;;;;;;;5.57;3.10;;;19.00;45.50;;;;;;6244380;28;20025;-68
2022/03/02 00:39:10;;;;;;;4.25;2.80;;;19.00;45.50;;;;;;6244027;28;20024;-67
2022/03/02 00:42:10;;;;;;;3.97;2.58;;;19.00;45.50;;;;;;6237211;28;20662;-68
2022/03/02 00:45:12;;;;;;;4.85;2.90;;;19.00;45.50;;;;;;6219741;28;20030;-68
2022/03/02 00:48:13;;;;;;;3.70;2.60;;;19.00;45.60;;;;;;6219849;28;20100;-68
2022/03/02 00:51:14;;;;;;;4.82;2.85;;;19.00;45.50;;;;;;6225283;28;20518;-68
2022/03/02 00:54:14;;;;;;;4.97;2.90;;;19.00;45.50;;;;;;6244345;28;20021;-67
2022/03/02 00:57:15;;;;;;;4.65;2.80;;;19.00;45.50;;;;;;6244168;28;20028;-68
2022/03/02 01:00:16;;;;;;;4.45;2.95;;;19.00;45.60;;;;;;6244276;28;20117;-67
2022/03/02 01:03:17;;;;;;;4.40;2.78;;;18.90;45.50;;;;;;6243868;28;20025;-68
2022/03/02 01:06:18;;;;;;;3.15;2.17;;;18.90;45.50;;;;;;6245354;28;20067;-68
2022/03/02 01:09:18;;;;;;;5.07;2.80;;;18.90;45.50;;;;;;6248964;28;20377;-68
2022/03/02 01:12:19;;;;;;;5.70;3.30;;;19.00;45.60;;;;;;6248829;28;20030;-68
2022/03/02 01:15:20;;;;;;;4.32;3.10;;;19.00;45.60;;;;;;6248400;28;20686;-67
2022/03/02 01:18:20;;;;;;;4.47;2.78;;;18.90;45.50;;;;;;6248271;28;20017;-67
2022/03/02 01:21:21;;;;;;;4.50;2.90;;;19.00;45.60;;;;;;6247859;28;20520;-67
2022/03/02 01:24:21;;;;;;;3.42;2.50;;;19.00;45.60;;;;;;6247967;28;20049;-67
2022/03/02 01:27:22;;;;;;;3.65;2.80;;;19.00;45.60;;;;;;6248389;28;20477;-68
2022/03/02 01:30:23;;;;;;;4.55;2.83;;;19.00;45.60;;;;;;6248663;28;20025;-68
2022/03/02 01:33:24;;;;;;;5.05;3.30;;;19.00;45.60;;;;;;6248272;28;20503;-68
2022/03/02 01:36:24;;;;;;;4.50;2.75;;;19.00;45.60;;;;;;6248153;28;20108;-68
2022/03/02 01:39:25;;;;;;;4.35;2.80;;;18.90;45.50;;;;;;6246820;28;20017;-68
2022/03/02 01:42:26;;;;;;;4.60;3.05;;;18.90;45.50;;;;;;6238972;28;20052;-68
2022/03/02 01:45:26;;;;;;;4.57;2.80;;;19.00;45.60;;;;;;6223304;28;20045;-68
2022/03/02 01:48:27;;;;;;;4.20;2.88;;;18.90;45.60;;;;;;6223364;28;20117;-68
2022/03/02 01:51:27;;;;;;;4.22;2.97;;;18.90;45.60;;;;;;6230741;28;20025;-68
2022/03/02 01:54:28;;;;;;;4.43;2.92;;;18.90;45.60;;;;;;6247858;28;20555;-68
2022/03/02 01:57:28;;;;;;;4.32;2.78;;;18.90;45.60;;;;;;6247612;28;20040;-68
2022/03/02 02:00:29;;;;;;;5.25;3.38;;;18.90;45.60;;;;;;6247678;28;20032;-67
2022/03/02 02:03:30;;;;;;;5.20;3.25;;;18.90;45.60;;;;;;6246056;28;20026;-67
2022/03/02 02:06:31;;;;;;;6.00;3.15;;;18.90;45.60;;;;;;6247966;28;20472;-68
2022/03/02 02:09:31;;;;;;;4.07;2.80;;;18.90;45.60;;;;;;6247308;28;20029;-67
2022/03/02 02:12:33;;;;;;;4.35;2.95;;;18.90;45.60;;;;;;6247388;28;20025;-67
2022/03/02 02:15:33;;;;;;;3.30;2.47;;;18.90;45.60;;;;;;6247115;28;20393;-67
2022/03/02 02:18:34;;;;;;;5.57;3.38;;;18.90;45.60;;;;;;6246944;28;20032;-67
2022/03/02 02:21:35;;;;;;;4.55;3.10;;;18.90;45.60;;;;;;6246822;28;20021;-68
2022/03/02 02:24:35;;;;;;;4.90;3.17;;;18.90;45.60;;;;;;6246671;28;20588;-67
2022/03/02 02:27:37;;;;;;;5.22;3.30;;;18.90;45.70;;;;;;6246774;28;20033;-67
2022/03/02 02:30:39;;;;;;;4.82;3.40;;;18.90;45.60;;;;;;6247105;28;20064;-68
2022/03/02 02:33:39;;;;;;;4.93;3.20;;;18.90;45.60;;;;;;6246614;28;20056;-68
2022/03/02 02:36:41;;;;;;;5.60;3.42;;;18.90;45.60;;;;;;6246792;28;20030;-67
2022/03/02 02:39:41;;;;;;;4.30;2.97;;;18.90;45.60;;;;;;6246883;28;20026;-67
2022/03/02 02:42:44;;;;;;;4.60;3.10;;;18.90;45.60;;;;;;6235168;28;20026;-67
2022/03/02 02:45:45;;;;;;;6.63;3.50;;;18.90;45.60;;;;;;6221920;28;20037;-67
2022/03/02 02:48:46;;;;;;;4.47;2.90;;;18.90;45.70;;;;;;6221769;28;20511;-68
2022/03/02 02:51:46;;;;;;;4.20;3.10;;;18.90;45.60;;;;;;6231989;28;20029;-68
2022/03/02 02:54:50;;;;;;;4.50;3.28;;;18.90;45.70;;;;;;6246311;28;20053;-68
2022/03/02 02:57:52;;;;;;;6.57;3.38;;;18.90;45.70;;;;;;6246413;28;20024;-68
2022/03/02 03:00:52;;;;;;;4.82;3.13;;;18.90;45.70;;;;;;6245986;28;20053;-67
2022/03/02 03:03:53;;;;;;;5.15;3.17;;;18.90;45.70;;;;;;6246142;28;20030;-68
2022/03/02 03:06:53;;;;;;;4.38;2.88;;;18.90;45.70;;;;;;6246012;28;20030;-68
2022/03/02 03:09:54;;;;;;;4.75;3.05;;;18.90;45.80;;;;;;6246040;28;20083;-67
2022/03/02 03:12:54;;;;;;;5.45;2.95;;;18.90;45.70;;;;;;6246027;28;20380;-68
2022/03/02 03:15:55;;;;;;;5.25;3.00;;;18.90;45.70;;;;;;6244674;28;20026;-68
2022/03/02 03:18:55;;;;;;;5.57;3.50;;;18.90;45.70;;;;;;6245703;28;20096;-67
2022/03/02 03:22:03;;;;;;;4.38;2.95;;;18.90;45.70;;;;;;6245987;28;20068;-67
2022/03/02 03:25:07;;;;;;;4.75;3.17;;;18.90;45.70;;;;;;6245017;28;20635;-67
2022/03/02 03:28:07;;;;;;;5.30;3.42;;;18.90;45.70;;;;;;6245459;28;20033;-67
2022/03/02 03:31:08;;;;;;;6.38;3.35;;;18.90;45.80;;;;;;6244982;28;20500;-68
2022/03/02 03:34:08;;;;;;;6.38;3.40;;;18.90;45.70;;;;;;6245664;28;20053;-67
2022/03/02 03:37:10;;;;;;;4.68;3.00;;;18.90;45.80;;;;;;6245239;28;20049;-68
2022/03/02 03:40:13;;;;;;;4.60;2.75;;;18.90;45.70;;;;;;6245430;28;20499;-68
2022/03/02 03:43:13;;;;;;;4.68;3.10;;;18.90;45.80;;;;;;6229727;28;20053;-67
2022/03/02 03:46:14;;;;;;;4.82;3.03;;;18.90;45.80;;;;;;6220721;28;20036;-67
2022/03/02 03:49:14;;;;;;;5.47;3.15;;;18.90;45.80;;;;;;6220393;28;20018;-68
2022/03/02 03:52:15;;;;;;;5.05;3.15;;;18.90;45.80;;;;;;6234677;28;20026;-68
2022/03/02 03:55:15;;;;;;;4.88;3.35;;;18.90;45.80;;;;;;6245081;28;20025;-68
2022/03/02 03:58:16;;;;;;;5.53;3.40;;;18.90;45.80;;;;;;6244955;28;20067;-68
2022/03/02 04:01:16;;;;;;;6.05;3.60;;;18.90;45.80;;;;;;6244550;28;20029;-68
2022/03/02 04:04:17;;;;;;;4.88;2.95;;;18.90;45.80;;;;;;6244919;28;20550;-67
2022/03/02 04:07:17;;;;;;;6.47;3.30;;;18.90;45.80;;;;;;6242787;28;20079;-67
2022/03/02 04:10:18;;;;;;;5.82;3.42;;;18.90;45.70;;;;;;6244683;28;20029;-67
2022/03/02 04:13:19;;;;;;;4.80;3.00;;;18.90;45.80;;;;;;6244698;28;20032;-68
2022/03/02 04:16:19;;;;;;;5.93;3.10;;;18.90;45.80;;;;;;6244813;28;20026;-67
2022/03/02 04:19:20;;;;;;;4.80;3.13;;;18.90;45.80;;;;;;6244633;28;20041;-68
2022/03/02 04:22:20;;;;;;;5.57;2.90;;;18.90;45.80;;;;;;6244650;28;20474;-68
2022/03/02 04:25:21;;;;;;;5.90;3.10;;;18.90;45.80;;;;;;6244043;28;20049;-68
2022/03/02 04:28:22;;;;;;;5.50;3.05;;;18.90;45.80;;;;;;6244317;28;20068;-68
2022/03/02 04:31:22;;;;;;;4.13;2.97;;;18.90;45.80;;;;;;6244339;28;20032;-68
2022/03/02 04:34:23;;;;;;;5.40;3.42;;;18.90;45.90;;;;;;6244563;28;20032;-68
2022/03/02 04:37:24;;;;;;;5.13;3.63;;;18.90;45.80;;;;;;6244134;28;20580;-68
2022/03/02 04:40:25;;;;;;;5.45;3.30;;;18.90;45.80;;;;;;6246121;28;20028;-68
2022/03/02 04:43:25;;;;;;;4.82;3.20;;;18.90;45.80;;;;;;6232038;28;20032;-67
2022/03/02 04:46:26;;;;;;;4.03;3.00;;;18.90;45.80;;;;;;6224711;28;20026;-68
2022/03/02 04:49:26;;;;;;;5.43;3.15;;;18.90;45.90;;;;;;6224596;28;20026;-68
2022/03/02 04:52:28;;;;;;;4.82;3.28;;;18.90;45.80;;;;;;6237969;28;20068;-68
2022/03/02 04:55:28;;;;;;;5.18;3.20;;;18.90;45.80;;;;;;6249370;28;20033;-68
2022/03/02 04:58:29;;;;;;;6.53;3.55;;;18.90;45.80;;;;;;6248991;28;20033;-68
2022/03/02 05:01:30;;;;;;;4.65;3.05;;;18.90;45.80;;;;;;6248880;28;20144;-67
2022/03/02 05:04:31;;;;;;;5.07;3.50;;;18.90;45.80;;;;;;6248440;28;20037;-67
2022/03/02 05:07:32;;;;;;;5.18;3.38;;;18.90;45.90;;;;;;6248307;28;20380;-67
2022/03/02 05:10:33;;;;;;;5.28;3.38;;;18.90;45.80;;;;;;6248906;28;20029;-67
2022/03/02 05:13:35;;;;;;;4.47;3.17;;;18.90;45.80;;;;;;6248832;28;20017;-68
2022/03/02 05:16:36;;;;;;;4.55;3.47;;;18.90;45.90;;;;;;6248579;28;20064;-67
2022/03/02 05:19:36;;;;;;;5.57;3.38;;;18.90;45.80;;;;;;6248515;28;20029;-67
2022/03/02 05:22:37;;;;;;;4.07;2.95;;;18.90;45.70;;;;;;6248485;28;20036;-67
2022/03/02 05:25:38;;;;;;;4.65;2.85;;;18.90;45.80;;;;;;6248241;28;20061;-67
2022/03/02 05:28:38;;;;;;;4.93;3.25;;;18.90;45.80;;;;;;6248313;28;20091;-67
2022/03/02 05:31:39;;;;;;;6.10;3.42;;;18.90;45.80;;;;;;6248358;28;20021;-67
2022/03/02 05:34:39;;;;;;;5.13;3.17;;;18.90;45.80;;;;;;6248294;28;20420;-67
2022/03/02 05:37:42;;;;;;;4.90;3.30;;;18.90;45.70;;;;;;6248321;28;20029;-68
2022/03/02 05:40:43;;;;;;;5.53;3.40;;;18.90;45.70;;;;;;6248354;28;20037;-67
2022/03/02 05:43:43;;;;;;;6.55;3.35;;;18.90;45.70;;;;;;6228225;28;20436;-67
2022/03/02 05:46:44;;;;;;;4.80;3.40;;;18.90;45.80;;;;;;6223498;28;20026;-68
2022/03/02 05:49:45;;;;;;;5.13;3.28;;;18.90;45.70;;;;;;6223351;28;20385;-68
2022/03/02 05:52:45;;;;;;;5.55;3.08;;;18.90;45.70;;;;;;6240503;28;20022;-67
2022/03/02 05:55:46;;;;;;;4.57;3.15;;;18.90;45.70;;;;;;6247999;28;20385;-67
2022/03/02 05:58:46;;;;;;;5.75;3.70;;;18.90;45.70;;;;;;6247604;28;20032;-68
2022/03/02 06:01:47;;;;;;;7.07;3.95;;;18.90;45.80;;;;;;6238307;28;20037;-68
2022/03/02 06:04:48;;;;;;;4.90;3.40;;;18.90;45.70;;;;;;6222907;28;20071;-67
2022/03/02 06:07:48;;;;;;;6.95;3.60;;;18.90;45.70;;;;;;6222968;28;20052;-67
2022/03/02 06:10:49;;;;;;;4.15;2.97;;;18.90;45.70;;;;;;6222863;28;20026;-67
2022/03/02 06:13:51;;;;;;;4.32;3.35;;;18.90;45.70;;;;;;6222756;28;20100;-67
2022/03/02 06:16:51;;;;;;;5.25;3.38;;;18.90;45.70;;;;;;6226352;28;20038;-67
2022/03/02 06:19:52;;;;;;;5.65;3.72;;;18.90;45.60;;;;;;6247206;28;20070;-68
2022/03/02 06:22:53;;;;;;;4.55;3.08;;;18.90;45.80;;;;;;6247139;28;20025;-67
2022/03/02 06:25:55;;;;;;;5.38;3.55;;;18.90;45.60;;;;;;6246396;28;20049;-67
2022/03/02 06:28:55;;;;;;;5.38;3.00;;;18.90;45.60;;;;;;6247051;28;20082;-68
2022/03/02 06:31:56;;;;;;;5.47;3.30;;;18.90;45.70;;;;;;6247039;28;20480;-68
2022/03/02 06:34:58;;;;;;;5.28;3.22;;;18.90;45.70;;;;;;6246794;28;20032;-67
2022/03/02 06:37:58;;;;;;;5.00;3.15;;;18.90;45.70;;;;;;6246931;28;20558;-68
2022/03/02 06:41:11;;;;;;;4.93;3.20;;;18.90;45.70;;;;;;6246859;28;20072;-68
2022/03/02 06:44:32;;;;;;;4.85;3.33;;;18.90;45.70;;;;;;6223154;28;20088;-68
2022/03/02 06:47:45;;;;;;;5.03;3.35;;;18.90;45.70;;;;;;6222120;28;20477;-68
2022/03/02 06:50:49;;;;;;;6.63;3.63;;;18.90;45.60;;;;;;6223583;28;20029;-68
2022/03/02 06:53:51;;;;;;;6.10;3.63;;;18.90;45.70;;;;;;6246350;28;20024;-68
2022/03/02 06:56:54;;;;;;;7.90;3.80;;;18.90;45.60;;;;;;6246583;28;20048;-67
2022/03/02 07:00:00;;;;;;;5.15;3.42;;;18.90;45.60;;;;;;6241692;28;20032;-67
2022/03/02 07:03:11;;;;;;;5.78;3.30;;;18.90;45.60;;;;;;6247978;28;20029;-68
2022/03/02 07:06:13;;;;;;;6.40;3.80;;;18.90;45.60;;;;;;6223373;28;20092;-68
2022/03/02 07:09:15;;;;;;;5.85;3.30;;;18.90;45.60;;;;;;6238811;28;20025;-68
2022/03/02 07:12:17;;;;;;;4.13;2.95;;;18.90;45.60;;;;;;6248002;28;20492;-67
2022/03/02 07:15:18;;;;;;;4.78;3.47;;;18.90;45.60;;;;;;6248092;28;20110;-69
2022/03/02 07:18:18;;;;;;;4.68;2.92;;;18.90;45.60;;;;;;6248002;28;20476;-68
2022/03/02 07:21:22;;;;;;;5.40;3.42;;;18.90;45.60;;;;;;6247827;28;20495;-68
2022/03/02 07:24:24;;;;;;;6.70;3.75;;;18.90;45.60;;;;;;6247638;28;20056;-68
2022/03/02 07:27:26;;;;;;;5.07;3.50;;;18.90;45.70;;;;;;6247596;28;20036;-68
2022/03/02 07:30:27;;;;;;;5.05;3.58;;;18.90;45.60;;;;;;6247912;28;20541;-68
2022/03/02 07:33:31;;;;;;;4.75;3.05;;;18.90;45.60;;;;;;6247576;28;20045;-68
2022/03/02 07:36:32;;;;;;;6.05;3.45;;;18.90;45.60;;;;;;6247832;28;20017;-67
2022/03/02 07:39:33;;;;;;;5.30;3.00;;;19.00;45.70;;;;;;6247183;28;20535;-67
2022/03/02 07:42:34;;;;;;;5.57;3.75;;;18.90;45.70;;;;;;6237362;28;20028;-68
2022/03/02 07:45:34;;;;;;;5.90;3.97;;;18.90;45.50;;;;;;6222725;28;20038;-68
2022/03/02 07:48:37;;;;;;;5.57;3.70;;;18.90;45.50;;;;;;6222996;28;20393;-68
2022/03/02 07:51:39;;;;;;;5.28;3.20;;;19.00;45.60;;;;;;6231000;28;20030;-69
2022/03/02 07:54:41;;;;;;;6.53;3.33;;;18.90;45.70;;;;;;6247259;28;20503;-67
2022/03/02 07:57:41;;;;;;;4.95;3.10;;;18.90;45.60;;;;;;6246417;28;20030;-68
2022/03/02 08:00:45;;;;;;;5.95;3.38;;;18.90;45.60;;;;;;6247282;28;20080;-69
2022/03/02 08:03:46;;;;;;;6.30;3.88;;;19.00;45.60;;;;;;6246824;28;20029;-67
2022/03/02 08:06:47;;;;;;;6.00;3.53;;;19.00;45.60;;;;;;6246844;28;20044;-67
2022/03/02 08:09:51;;;;;;;5.13;3.20;;;18.90;45.60;;;;;;6246847;28;20033;-67
2022/03/02 08:12:52;;;;;;;7.28;4.28;;;19.00;45.60;;;;;;6246940;28;20017;-67
2022/03/02 08:15:53;;;;;;;6.45;4.05;;;19.00;45.60;;;;;;6246430;28;20021;-67
2022/03/02 08:18:54;;;;;;;5.68;3.78;;;19.00;45.60;;;;;;6246845;28;20092;-67
2022/03/02 08:21:58;;;;;;;6.88;3.88;;;19.00;45.60;;;;;;6246706;28;20021;-67
2022/03/02 08:25:10;;;;;;;6.38;3.72;;;19.00;45.60;;;;;;6244859;28;20068;-68
2022/03/02 08:28:15;;;;;;;6.13;4.15;;;18.90;45.60;;;;;;6246930;28;20064;-67
2022/03/02 08:31:16;;;;;;;5.47;3.80;;;19.00;45.70;;;;;;6246480;28;20021;-67
2022/03/02 08:34:17;;;;;;;11.13;4.35;;;18.90;45.50;;;;;;6246696;28;20013;-68
2022/03/02 08:37:19;;;;;;;8.77;3.67;;;19.00;45.60;;;;;;6246398;28;20033;-69
2022/03/02 08:40:19;;;;;;;9.80;4.30;;;18.90;45.50;;;;;;6246511;28;20025;-68
2022/03/02 08:43:20;;;;;;;6.70;3.97;;;19.00;45.60;;;;;;6229832;28;20045;-67
2022/03/02 08:46:22;;;;;;;6.22;4.03;;;19.00;45.60;;;;;;6221551;28;20489;-68
2022/03/02 08:49:22;;;;;;;6.22;3.63;;;19.00;45.60;;;;;;6221099;28;20374;-68
2022/03/02 08:52:28;;;;;;;6.57;3.70;;;19.00;45.60;;;;;;6236669;28;20075;-68
2022/03/02 08:55:31;;;;;;;6.32;4.38;;;18.90;45.50;;;;;;6246111;28;20423;-68
2022/03/02 08:58:32;;;;;;;9.52;4.00;;;19.00;45.60;;;;;;6246096;28;20033;-67
2022/03/02 09:01:35;;;;;;;6.32;3.72;;;19.00;45.60;;;;;;6245922;28;20026;-67
2022/03/02 09:04:37;;;;;;;7.10;4.30;;;18.90;45.60;;;;;;6245400;28;20026;-67
2022/03/02 09:07:38;;;;;;;4.95;3.22;;;19.00;45.60;;;;;;6245742;28;20155;-67
2022/03/02 09:10:39;;;;;;;5.50;3.70;;;19.00;45.70;;;;;;6245714;28;20025;-67
2022/03/02 09:13:40;;;;;;;8.43;4.03;;;19.00;45.60;;;;;;6245674;28;20036;-67
2022/03/02 09:16:40;;;;;;;6.35;3.80;;;19.00;45.60;;;;;;6245330;28;20021;-67
2022/03/02 09:19:41;;;;;;;8.40;3.70;;;18.90;45.60;;;;;;6245618;28;20051;-67
2022/03/02 09:22:43;;;;;;;5.80;3.80;;;19.00;45.70;;;;;;6245335;28;20036;-67
2022/03/02 09:25:45;;;;;;;6.82;4.00;;;19.00;45.60;;;;;;6245161;28;20049;-67
2022/03/02 09:28:50;;;;;;;6.53;3.58;;;19.00;45.60;;;;;;6249001;28;20138;-68
2022/03/02 09:31:52;;;;;;;8.65;4.07;;;18.90;45.60;;;;;;6250649;28;20080;-67
2022/03/02 09:34:57;;;;;;;6.03;3.72;;;19.00;45.60;;;;;;6250227;28;20029;-67
2022/03/02 09:37:59;;;;;;;5.18;3.70;;;19.00;45.60;;;;;;6250562;28;20080;-68
2022/03/02 09:41:13;;;;;;;6.38;3.92;;;19.00;45.60;;;;;;6250090;28;20051;-67
2022/03/02 09:44:15;;;;;;;6.47;3.85;;;19.00;45.70;;;;;;6226202;28;20026;-67
2022/03/02 09:47:21;;;;;;;6.95;3.90;;;19.00;45.60;;;;;;6225736;28;20519;-68
2022/03/02 09:50:25;;;;;;;4.93;3.28;;;19.00;45.70;;;;;;6225450;28;20022;-68
2022/03/02 09:53:28;;;;;;;5.68;3.63;;;19.00;45.70;;;;;;6249205;28;20024;-67
2022/03/02 09:56:31;;;;;;;5.40;3.60;;;19.00;45.70;;;;;;6249820;28;20021;-68
2022/03/02 09:59:38;;;;;;;5.97;3.95;;;19.00;45.70;;;;;;6249806;28;20022;-68
2022/03/02 10:02:45;;;;;;;6.07;3.85;;;19.00;45.70;;;;;;6249690;28;20082;-68
2022/03/02 10:05:48;;;;;;;8.45;3.63;;;19.00;45.60;;;;;;6249515;28;20033;-67
2022/03/02 10:08:51;;;;;;;7.35;4.07;;;18.90;46.30;;;;;;6249551;28;20063;-67
2022/03/02 10:11:52;;;;;;;6.03;3.47;;;19.00;45.60;;;;;;6249577;28;20029;-68
2022/03/02 10:14:53;;;;;;;8.38;4.63;;;18.90;45.60;;;;;;6249690;28;20022;-67
2022/03/02 10:17:56;;;;;;;6.13;4.00;;;18.90;45.60;;;;;;6249238;28;20064;-68
2022/03/02 10:21:00;;;;;;;5.32;3.45;;;18.90;45.60;;;;;;6248814;28;20040;-68
2022/03/02 10:24:03;;;;;;;4.97;3.45;;;19.00;45.60;;;;;;6248722;28;20033;-67
2022/03/02 10:27:06;;;;;;;5.00;3.60;;;18.90;45.60;;;;;;6248818;28;20022;-67
2022/03/02 10:30:10;;;;;;;5.78;3.85;;;19.00;45.70;;;;;;6249369;28;20037;-68
2022/03/02 10:33:25;;;;;;;6.45;3.90;;;18.90;45.60;;;;;;6249224;28;20033;-68
2022/03/02 10:36:28;;;;;;;6.10;3.92;;;19.00;45.70;;;;;;6249105;28;20045;-68
2022/03/02 10:40:05;;;;;;;5.53;3.47;;;19.00;45.80;;;;;;6248408;28;20022;-67
2022/03/02 10:43:10;;;;;;;6.68;3.92;;;19.00;45.70;;;;;;6234199;28;20033;-67
2022/03/02 10:46:18;;;;;;;5.47;3.40;;;19.00;45.70;;;;;;6224249;28;20026;-67
2022/03/02 10:49:21;;;;;;;5.88;3.75;;;19.00;45.80;;;;;;6224237;28;20064;-68
2022/03/02 10:52:25;;;;;;;6.90;4.22;;;19.00;45.70;;;;;;6238999;28;20112;-68
2022/03/02 10:55:26;;;;;;;5.18;3.50;;;19.00;45.70;;;;;;6248637;28;20029;-68
2022/03/02 10:58:28;;;;;;;6.18;3.72;;;19.00;45.80;;;;;;6248673;28;20028;-68
2022/03/02 11:01:29;;;;;;;4.97;3.35;;;18.90;45.60;;;;;;6248420;28;20051;-67
2022/03/02 11:04:30;;;;;;;6.72;3.80;;;19.00;45.70;;;;;;6248378;28;20021;-68
2022/03/02 11:07:31;;;;;;;6.35;3.58;;;19.00;45.70;;;;;;6248271;28;20030;-68
2022/03/02 11:10:33;;;;;;;7.70;4.05;;;19.00;45.80;;;;;;6248226;28;20025;-67
2022/03/02 11:13:34;;;;;;;6.43;3.67;;;19.00;45.80;;;;;;6248249;28;20465;-67
2022/03/02 11:16:36;;;;;;;6.30;3.58;;;19.00;45.70;;;;;;6247801;28;20098;-68
2022/03/02 11:19:45;;;;;;;5.25;3.45;;;19.00;45.80;;;;;;6247993;28;20099;-68
2022/03/02 11:22:56;;;;;;;8.48;4.20;;;19.00;45.80;;;;;;6247898;28;20160;-68
2022/03/02 11:26:05;;;;;;;6.45;4.07;;;18.90;45.70;;;;;;6247707;28;20034;-68
2022/03/02 11:29:13;;;;;;;6.00;3.92;;;19.00;45.80;;;;;;6247729;28;20021;-68
2022/03/02 11:32:14;;;;;;;5.28;3.38;;;19.00;45.70;;;;;;6247633;28;20029;-69
2022/03/02 11:35:18;;;;;;;6.60;3.80;;;19.00;45.80;;;;;;6247802;28;20033;-68
2022/03/02 11:38:21;;;;;;;5.93;3.60;;;19.00;45.80;;;;;;6247284;28;20033;-68
2022/03/02 11:41:35;;;;;;;6.18;3.30;;;19.00;45.80;;;;;;6247210;28;20264;-68
2022/03/02 11:44:37;;;;;;;6.38;3.45;;;19.00;45.80;;;;;;6222663;28;20022;-68
2022/03/02 11:47:41;;;;;;;5.00;3.08;;;19.00;45.80;;;;;;6223153;28;20037;-68
2022/03/02 11:51:04;;;;;;;5.43;3.75;;;19.00;45.80;;;;;;6223480;28;20492;-68
2022/03/02 11:54:08;;;;;;;6.55;3.47;;;18.90;45.70;;;;;;6247185;28;20649;-68
2022/03/02 11:57:09;;;;;;;5.97;3.70;;;19.00;46.50;;;;;;6247327;28;20018;-68
2022/03/02 12:00:10;;;;;;;6.45;3.50;;;19.00;45.90;;;;;;6247436;28;20040;-68
2022/03/02 12:03:10;;;;;;;4.60;3.08;;;18.90;45.80;;;;;;6246989;28;20032;-68
2022/03/02 12:06:17;;;;;;;6.72;3.50;;;19.00;45.90;;;;;;6246936;28;20395;-68
2022/03/02 12:09:29;;;;;;;5.63;3.40;;;19.00;45.90;;;;;;6246807;28;20057;-68
2022/03/02 12:12:30;;;;;;;5.07;3.10;;;19.00;45.90;;;;;;6247043;28;20105;-68
2022/03/02 12:15:47;;;;;;;6.05;3.28;;;19.00;45.90;;;;;;6246771;28;20075;-68
2022/03/02 12:18:52;;;;;;;5.47;3.30;;;18.90;45.80;;;;;;6247061;28;20043;-68
2022/03/02 12:22:02;;;;;;;4.97;3.33;;;19.00;46.00;;;;;;6246752;28;20018;-68
2022/03/02 12:25:04;;;;;;;4.80;3.10;;;19.00;45.90;;;;;;6245801;28;20403;-68
2022/03/02 12:28:08;;;;;;;6.75;3.70;;;19.00;46.00;;;;;;6246370;28;20021;-68
2022/03/02 12:31:12;;;;;;;5.13;3.30;;;19.00;46.00;;;;;;6246225;28;20032;-68
2022/03/02 12:34:15;;;;;;;5.18;3.38;;;19.00;46.00;;;;;;6246830;28;20064;-68
2022/03/02 12:37:16;;;;;;;4.28;2.72;;;19.00;46.00;;;;;;6246566;28;20038;-68
2022/03/02 12:40:16;;;;;;;5.70;3.47;;;19.00;46.00;;;;;;6246750;28;20022;-68
2022/03/02 12:43:18;;;;;;;5.68;3.45;;;18.90;45.80;;;;;;6230655;28;20055;-68
2022/03/02 12:46:19;;;;;;;5.03;2.95;;;18.90;45.90;;;;;;6222126;28;20038;-68
2022/03/02 12:49:25;;;;;;;5.30;3.17;;;19.00;46.00;;;;;;6221865;28;20030;-68
2022/03/02 12:52:28;;;;;;;4.18;2.85;;;19.00;46.00;;;;;;6237454;28;20056;-68
2022/03/02 12:55:28;;;;;;;5.88;3.45;;;19.00;46.00;;;;;;6246696;28;20021;-68
2022/03/02 12:58:29;;;;;;;5.22;3.05;;;19.00;46.00;;;;;;6246465;28;20522;-68
2022/03/02 13:01:30;;;;;;;5.13;3.33;;;18.90;45.90;;;;;;6247742;28;20053;-68
2022/03/02 13:04:50;;;;;;;4.95;2.85;;;18.90;45.90;;;;;;6251173;28;20175;-68
2022/03/02 13:08:25;;;;;;;5.05;3.20;;;19.00;46.00;;;;;;6251237;28;20139;-68
2022/03/02 13:11:31;;;;;;;5.18;3.10;;;19.00;46.00;;;;;;6251172;28;20028;-68
2022/03/02 13:14:32;;;;;;;4.85;3.15;;;18.90;46.00;;;;;;6250996;28;20017;-67
2022/03/02 13:17:33;;;;;;;5.40;3.10;;;18.90;46.00;;;;;;6251279;28;20548;-68
2022/03/02 13:20:43;;;;;;;6.20;3.60;;;18.90;46.00;;;;;;6250856;28;20022;-68
2022/03/02 13:24:14;;;;;;;5.20;3.15;;;19.00;46.00;;;;;;6250589;28;20083;-68
2022/03/02 13:27:16;;;;;;;4.43;2.88;;;19.00;46.00;;;;;;6250687;28;20119;-68
2022/03/02 13:30:16;;;;;;;4.43;3.00;;;19.00;46.00;;;;;;6250569;28;20083;-68
2022/03/02 13:33:17;;;;;;;4.65;2.85;;;19.00;46.00;;;;;;6250606;28;20033;-68
2022/03/02 13:36:34;;;;;;;6.30;3.35;;;19.00;46.00;;;;;;6250395;28;20143;-68
2022/03/02 13:39:40;;;;;;;6.05;3.20;;;19.00;46.10;;;;;;6250235;28;20030;-68
2022/03/02 13:42:41;;;;;;;4.47;2.90;;;19.00;46.10;;;;;;6238017;28;20103;-68
2022/03/02 13:46:07;;;;;;;5.03;3.20;;;19.00;46.10;;;;;;6225478;28;20037;-68
2022/03/02 13:49:08;;;;;;;4.95;2.90;;;19.00;46.10;;;;;;6232501;28;20025;-67
2022/03/02 13:52:08;;;;;;;4.95;2.90;;;18.90;46.00;;;;;;6249960;28;20049;-68
2022/03/02 13:55:12;;;;;;;4.28;2.90;;;19.00;46.10;;;;;;6249867;28;20024;-68
2022/03/02 13:58:25;;;;;;;4.93;3.13;;;19.00;46.10;;;;;;6250169;28;20101;-68
2022/03/02 14:01:29;;;;;;;3.90;2.70;;;19.00;46.10;;;;;;6249927;28;20031;-68
2022/03/02 14:04:32;;;;;;;3.85;2.47;;;19.00;46.10;;;;;;6249845;28;20396;-68
2022/03/02 14:07:36;;;;;;;4.20;2.78;;;19.00;46.10;;;;;;6249691;28;20132;-68
2022/03/02 14:10:40;;;;;;;7.28;2.80;;;19.00;46.20;;;;;;6249775;28;20547;-68
2022/03/02 14:13:44;;;;;;;4.15;2.97;;;18.90;46.10;;;;;;6249562;28;20026;-68
2022/03/02 14:16:52;;;;;;;4.35;2.90;;;19.00;46.10;;;;;;6249460;28;20025;-68
2022/03/02 14:19:52;;;;;;;5.15;2.90;;;19.00;46.20;;;;;;6249591;28;20053;-68
2022/03/02 14:23:04;;;;;;;4.03;2.60;;;18.90;46.10;;;;;;6249268;28;20524;-68
2022/03/02 14:26:08;;;;;;;4.82;3.05;;;19.00;46.10;;;;;;6249155;28;20116;-68
2022/03/02 14:29:13;;;;;;;3.70;2.50;;;18.90;46.10;;;;;;6249199;28;20036;-68
2022/03/02 14:32:13;;;;;;;;;;;19.00;46.20;;;;;;6248362;28;20162;-68
2022/03/02 14:35:23;;;;;;;3.95;2.70;;;19.00;46.20;;;;;;6248906;28;19905;-68
2022/03/02 14:38:24;;;;;;;4.90;2.95;;;19.00;46.20;;;;;;6248865;28;20037;-68
2022/03/02 14:41:27;;;;;;;4.97;2.88;;;19.00;46.20;;;;;;6247884;28;20400;-68
2022/03/02 14:44:28;;;;;;;3.42;2.50;;;19.00;46.20;;;;;;6223924;28;20133;-68
2022/03/02 14:47:28;;;;;;;5.40;3.25;;;19.00;46.20;;;;;;6224056;28;20018;-68
2022/03/02 14:50:45;;;;;;;4.82;2.85;;;18.90;46.10;;;;;;6224112;28;20025;-68
2022/03/02 14:53:45;;;;;;;5.13;2.80;;;18.90;46.10;;;;;;6223889;28;20465;-68
2022/03/02 14:56:46;;;;;;;4.03;2.75;;;19.00;46.20;;;;;;6223874;28;20028;-68
2022/03/02 14:59:48;;;;;;;4.38;3.03;;;19.00;46.20;;;;;;6224337;28;20025;-68
2022/03/02 15:02:49;;;;;;;4.93;3.15;;;19.00;46.20;;;;;;6223821;28;20038;-68
2022/03/02 15:06:12;;;;;;;4.40;2.92;;;18.90;46.20;;;;;;6246743;28;20045;-68
2022/03/02 15:09:14;;;;;;;5.82;2.78;;;18.90;46.10;;;;;;6248274;28;20039;-68
2022/03/02 15:12:14;;;;;;;4.65;2.95;;;19.00;46.30;;;;;;6248289;28;20504;-68
2022/03/02 15:15:15;;;;;;;5.70;3.00;;;19.00;46.20;;;;;;6248218;28;20060;-68
2022/03/02 15:18:16;;;;;;;4.05;2.78;;;18.90;46.20;;;;;;6247774;28;20048;-68
2022/03/02 15:21:16;;;;;;;4.30;2.83;;;19.00;46.30;;;;;;6248063;28;20026;-68
2022/03/02 15:24:17;;;;;;;5.13;3.03;;;18.90;46.20;;;;;;6246964;28;20072;-68
2022/03/02 15:27:18;;;;;;;4.57;2.90;;;18.90;46.20;;;;;;6247750;28;20113;-68
2022/03/02 15:30:19;;;;;;;4.82;2.83;;;19.00;46.20;;;;;;6247774;28;20061;-68
2022/03/02 15:33:20;;;;;;;3.78;2.35;;;19.00;46.30;;;;;;6247856;28;20029;-68
2022/03/02 15:36:21;;;;;;;3.40;2.50;;;19.00;46.20;;;;;;6247248;28;20036;-68
2022/03/02 15:39:25;;;;;;;3.40;2.42;;;19.00;46.30;;;;;;6247660;28;20025;-68
2022/03/02 15:42:30;;;;;;;4.53;2.83;;;19.00;46.20;;;;;;6238453;28;20469;-68
2022/03/02 15:45:31;;;;;;;4.57;3.07;;;19.00;46.30;;;;;;6222648;28;20077;-68
2022/03/02 15:48:33;;;;;;;4.25;2.67;;;19.00;46.30;;;;;;6222976;28;20743;-68
2022/03/02 15:51:33;;;;;;;4.93;2.70;;;18.90;46.20;;;;;;6231073;28;20036;-67
2022/03/02 15:54:54;;;;;;;4.88;2.80;;;19.00;46.30;;;;;;6246926;28;20026;-68